Nordlys — YJTS2 — position and weather

sailwx.info

Track history (hours):
 
Tides and Currents Weather Stations Pressure Air Temp Water Temp Dewpoint Dewpoint Depression Visibility Wind Speed Wind Dir Waves Ship Positions

Nordlys

Ship's website: http://fairtransport.eu/category/nordlys/

Last reported at 2018-Apr-16 13:11 UTC. Time now 2018-Apr-20 06:42 UTC.
Position N 41°08' W 008°41'.

Length 20 m; draft 2.7 m.

MMSI: 577228000.

Date/timePositionNaut miles runAvg speedWind from/ knotsBaromVisibWave heightAir tempDewpointWater temp
2018-Apr-16 13:11N 41°08' W 008°41'1 5.1
2018-Apr-16 12:59N 41°08' W 008°43'3 0.1
2018-Apr-15 11:38N 41°07' W 008°46'1 3.1
2018-Apr-15 11:26N 41°08' W 008°45'1 3.0
2018-Apr-15 11:00N 41°09' W 008°45'1 2.7
2018-Apr-15 10:30N 41°10' W 008°45'1 2.0
2018-Apr-15 10:00N 41°11' W 008°46'  
2018-Apr-08 23:33N 48°06' W 005°45'12 6.6
2018-Apr-08 21:43N 48°07' W 005°27'6 6.2
2018-Apr-08 20:43N 48°07' W 005°17'6 6.5
2018-Apr-08 19:43N 48°07' W 005°08'9 6.7
2018-Apr-08 18:25N 48°08' W 004°55'3 6.2
2018-Apr-08 18:00N 48°08' W 004°51'3 5.6
2018-Apr-08 17:30N 48°08' W 004°47'3 5.9
2018-Apr-08 17:00N 48°08' W 004°42'3 5.7
2018-Apr-08 16:30N 48°09' W 004°38'3 5.3
2018-Apr-08 16:00N 48°09' W 004°34'2 3.9
2018-Apr-08 15:29N 48°09' W 004°31'2 3.9
2018-Apr-08 15:00N 48°09' W 004°28'1 2.4
2018-Apr-08 14:30N 48°09' W 004°27'1 2.8
2018-Apr-08 14:00N 48°08' W 004°26'1 1.5
2018-Apr-08 13:25N 48°07' W 004°24'2 2.7
2018-Apr-08 12:48N 48°09' W 004°23'1 1.8
2018-Apr-08 12:30N 48°10' W 004°23'0 0.5
2018-Apr-08 12:00N 48°10' W 004°23'1 1.8
2018-Apr-08 11:30N 48°09' W 004°22'1 2.7
2018-Apr-08 11:00N 48°08' W 004°21'1 2.3
2018-Apr-08 10:30N 48°07' W 004°20'1 0.8
2018-Apr-08 09:39N 48°06' W 004°20'0 0.0
2018-Apr-08 09:08N 48°06' W 004°20'0 0.0
2018-Apr-08 08:58N 48°06' W 004°20'0 0.0
2018-Apr-08 08:28N 48°06' W 004°20'0 0.0
2018-Apr-08 07:56N 48°06' W 004°20'0 0.0
2018-Apr-08 07:29N 48°06' W 004°20'0 0.0
2018-Apr-08 06:58N 48°06' W 004°20'0 0.0
2018-Apr-08 06:29N 48°06' W 004°20'0 0.0
2018-Apr-08 05:58N 48°06' W 004°20'0 0.0
2018-Apr-08 05:27N 48°06' W 004°20'0 0.0
2018-Apr-08 04:56N 48°06' W 004°20'0 0.0
2018-Apr-08 04:29N 48°06' W 004°20'0 0.0
2018-Apr-08 03:57N 48°06' W 004°20'0 0.0
2018-Apr-08 03:20N 48°06' W 004°20'0 0.0
2018-Apr-08 02:58N 48°06' W 004°20'0 0.0
2018-Apr-08 02:29N 48°06' W 004°20'0 0.0
2018-Apr-08 01:56N 48°06' W 004°20'0 0.0
2018-Apr-08 01:28N 48°06' W 004°20'0 0.0
2018-Apr-08 00:59N 48°06' W 004°20'0 0.0
2018-Apr-08 00:29N 48°06' W 004°20'0 0.0
2018-Apr-07 23:58N 48°06' W 004°20'0 0.0
2018-Apr-07 23:29N 48°06' W 004°20'0 0.0
2018-Apr-07 22:59N 48°06' W 004°20'0 0.0
2018-Apr-07 22:28N 48°06' W 004°20'0 0.0
2018-Apr-07 21:58N 48°06' W 004°20'0 0.0
2018-Apr-07 21:26N 48°06' W 004°20'0 0.0
2018-Apr-07 20:51N 48°06' W 004°20'0 0.0
2018-Apr-07 20:21N 48°06' W 004°20'0 0.0
2018-Apr-07 19:58N 48°06' W 004°20'0 0.0
2018-Apr-07 19:29N 48°06' W 004°20'0 0.0
2018-Apr-07 18:58N 48°06' W 004°20'0 0.0
2018-Apr-07 18:26N 48°06' W 004°20'0 0.0
2018-Apr-07 17:58N 48°06' W 004°20'0 0.0
2018-Apr-07 17:29N 48°06' W 004°20'0 0.0
2018-Apr-07 16:56N 48°06' W 004°20'0 0.0
2018-Apr-07 16:29N 48°06' W 004°20'0 0.0
2018-Apr-07 15:57N 48°06' W 004°20'0 0.0
2018-Apr-07 15:23N 48°06' W 004°20'0 0.0
2018-Apr-07 14:59N 48°06' W 004°20'0 0.0
2018-Apr-07 14:23N 48°06' W 004°20'0 0.0
2018-Apr-07 13:59N 48°06' W 004°20'0 0.0
2018-Apr-07 13:29N 48°06' W 004°20'0 0.0
2018-Apr-07 12:59N 48°06' W 004°20'0 0.0
2018-Apr-07 12:30N 48°06' W 004°20'0 0.0
2018-Apr-07 11:59N 48°06' W 004°20'0 0.0
2018-Apr-07 11:26N 48°06' W 004°20'0 0.0
2018-Apr-07 11:00N 48°06' W 004°20'0 0.0
2018-Apr-07 10:30N 48°06' W 004°20'0 0.0
2018-Apr-07 10:00N 48°06' W 004°20'0 0.0
2018-Apr-07 09:27N 48°06' W 004°20'0 0.0
2018-Apr-07 08:50N 48°06' W 004°20'0 0.0
2018-Apr-07 07:51N 48°06' W 004°20'0 0.0
2018-Apr-07 07:21N 48°06' W 004°20'0 0.0
2018-Apr-07 05:39N 48°06' W 004°20'0 0.0
2018-Apr-07 05:19N 48°06' W 004°20'0 0.0
2018-Apr-07 04:55N 48°06' W 004°20'0 0.0
2018-Apr-07 04:28N 48°06' W 004°20'0 0.0
2018-Apr-07 03:52N 48°06' W 004°20'0 0.0
2018-Apr-07 03:25N 48°06' W 004°20'0 0.0
2018-Apr-07 02:58N 48°06' W 004°20'0 0.0
2018-Apr-07 02:28N 48°06' W 004°20'0 0.0
2018-Apr-07 01:55N 48°06' W 004°20'0 0.0
2018-Apr-07 01:28N 48°06' W 004°20'0 0.0
2018-Apr-07 00:58N 48°06' W 004°20'0 0.0
2018-Apr-07 00:28N 48°06' W 004°20'0 0.0
2018-Apr-06 23:58N 48°06' W 004°20'0 0.0
2018-Apr-06 23:28N 48°06' W 004°20'0 0.0
2018-Apr-06 22:58N 48°06' W 004°20'0 0.0
2018-Apr-06 22:28N 48°06' W 004°20'0 0.0
2018-Apr-06 21:52N 48°06' W 004°20'0 0.0
2018-Apr-06 21:28N 48°06' W 004°20'0 0.0
2018-Apr-06 20:43N 48°06' W 004°20'0 0.0
2018-Apr-06 20:19N 48°06' W 004°20'0 0.0
2018-Apr-06 19:58N 48°06' W 004°20'0 0.0
2018-Apr-06 19:16N 48°06' W 004°20'0 0.0
2018-Apr-06 18:58N 48°06' W 004°20'0 0.0
2018-Apr-06 18:29N 48°06' W 004°20'0 0.0
2018-Apr-06 17:55N 48°06' W 004°20'0 0.0
2018-Apr-06 17:25N 48°06' W 004°20'0 0.0
2018-Apr-06 16:55N 48°06' W 004°20'0 0.0
2018-Apr-06 16:29N 48°06' W 004°20'0 0.0
2018-Apr-06 15:56N 48°06' W 004°20'0 0.0
2018-Apr-06 15:27N 48°06' W 004°20'0 0.0
2018-Apr-06 14:57N 48°06' W 004°20'0 0.0
2018-Apr-06 14:27N 48°06' W 004°20'0 0.0
2018-Apr-06 14:00N 48°06' W 004°20'0 0.0
2018-Apr-06 13:27N 48°06' W 004°20'  
Track history (hours):
 
Tides and Currents Weather Stations Pressure Air Temp Water Temp Dewpoint Dewpoint Depression Visibility Wind Speed Wind Dir Waves Ship Positions

Nordlys

Ship's website: http://fairtransport.eu/category/nordlys/

Last reported at 2018-Apr-16 13:11 UTC. Time now 2018-Apr-20 06:42 UTC.
Position N 41°08' W 008°41'.

Length 20 m; draft 2.7 m.

MMSI: 577228000.

Date/timePositionNaut miles runAvg speedWind from/ knotsBaromVisibWave heightAir tempDewpointWater temp
2018-Apr-16 13:11N 41°08' W 008°41'1 5.1
2018-Apr-16 12:59N 41°08' W 008°43'3 0.1
2018-Apr-15 11:38N 41°07' W 008°46'1 3.1
2018-Apr-15 11:26N 41°08' W 008°45'1 3.0
2018-Apr-15 11:00N 41°09' W 008°45'1 2.7
2018-Apr-15 10:30N 41°10' W 008°45'1 2.0
2018-Apr-15 10:00N 41°11' W 008°46'  
2018-Apr-08 23:33N 48°06' W 005°45'12 6.6
2018-Apr-08 21:43N 48°07' W 005°27'6 6.2
2018-Apr-08 20:43N 48°07' W 005°17'6 6.5
2018-Apr-08 19:43N 48°07' W 005°08'9 6.7
2018-Apr-08 18:25N 48°08' W 004°55'3 6.2
2018-Apr-08 18:00N 48°08' W 004°51'3 5.6
2018-Apr-08 17:30N 48°08' W 004°47'3 5.9
2018-Apr-08 17:00N 48°08' W 004°42'3 5.7
2018-Apr-08 16:30N 48°09' W 004°38'3 5.3
2018-Apr-08 16:00N 48°09' W 004°34'2 3.9
2018-Apr-08 15:29N 48°09' W 004°31'2 3.9
2018-Apr-08 15:00N 48°09' W 004°28'1 2.4
2018-Apr-08 14:30N 48°09' W 004°27'1 2.8
2018-Apr-08 14:00N 48°08' W 004°26'1 1.5
2018-Apr-08 13:25N 48°07' W 004°24'2 2.7
2018-Apr-08 12:48N 48°09' W 004°23'1 1.8
2018-Apr-08 12:30N 48°10' W 004°23'0 0.5
2018-Apr-08 12:00N 48°10' W 004°23'1 1.8
2018-Apr-08 11:30N 48°09' W 004°22'1 2.7
2018-Apr-08 11:00N 48°08' W 004°21'1 2.3
2018-Apr-08 10:30N 48°07' W 004°20'1 0.8
2018-Apr-08 09:39N 48°06' W 004°20'0 0.0
2018-Apr-08 09:08N 48°06' W 004°20'0 0.0
2018-Apr-08 08:58N 48°06' W 004°20'0 0.0
2018-Apr-08 08:28N 48°06' W 004°20'0 0.0
2018-Apr-08 07:56N 48°06' W 004°20'0 0.0
2018-Apr-08 07:29N 48°06' W 004°20'0 0.0
2018-Apr-08 06:58N 48°06' W 004°20'0 0.0
2018-Apr-08 06:29N 48°06' W 004°20'0 0.0
2018-Apr-08 05:58N 48°06' W 004°20'0 0.0
2018-Apr-08 05:27N 48°06' W 004°20'0 0.0
2018-Apr-08 04:56N 48°06' W 004°20'0 0.0
2018-Apr-08 04:29N 48°06' W 004°20'0 0.0
2018-Apr-08 03:57N 48°06' W 004°20'0 0.0
2018-Apr-08 03:20N 48°06' W 004°20'0 0.0
2018-Apr-08 02:58N 48°06' W 004°20'0 0.0
2018-Apr-08 02:29N 48°06' W 004°20'0 0.0
2018-Apr-08 01:56N 48°06' W 004°20'0 0.0
2018-Apr-08 01:28N 48°06' W 004°20'0 0.0
2018-Apr-08 00:59N 48°06' W 004°20'0 0.0
2018-Apr-08 00:29N 48°06' W 004°20'0 0.0
2018-Apr-07 23:58N 48°06' W 004°20'0 0.0
2018-Apr-07 23:29N 48°06' W 004°20'0 0.0
2018-Apr-07 22:59N 48°06' W 004°20'0 0.0
2018-Apr-07 22:28N 48°06' W 004°20'0 0.0
2018-Apr-07 21:58N 48°06' W 004°20'0 0.0
2018-Apr-07 21:26N 48°06' W 004°20'0 0.0
2018-Apr-07 20:51N 48°06' W 004°20'0 0.0
2018-Apr-07 20:21N 48°06' W 004°20'0 0.0
2018-Apr-07 19:58N 48°06' W 004°20'0 0.0
2018-Apr-07 19:29N 48°06' W 004°20'0 0.0
2018-Apr-07 18:58N 48°06' W 004°20'0 0.0
2018-Apr-07 18:26N 48°06' W 004°20'0 0.0
2018-Apr-07 17:58N 48°06' W 004°20'0 0.0
2018-Apr-07 17:29N 48°06' W 004°20'0 0.0
2018-Apr-07 16:56N 48°06' W 004°20'0 0.0
2018-Apr-07 16:29N 48°06' W 004°20'0 0.0
2018-Apr-07 15:57N 48°06' W 004°20'0 0.0
2018-Apr-07 15:23N 48°06' W 004°20'0 0.0
2018-Apr-07 14:59N 48°06' W 004°20'0 0.0
2018-Apr-07 14:23N 48°06' W 004°20'0 0.0
2018-Apr-07 13:59N 48°06' W 004°20'0 0.0
2018-Apr-07 13:29N 48°06' W 004°20'0 0.0
2018-Apr-07 12:59N 48°06' W 004°20'0 0.0
2018-Apr-07 12:30N 48°06' W 004°20'0 0.0
2018-Apr-07 11:59N 48°06' W 004°20'0 0.0
2018-Apr-07 11:26N 48°06' W 004°20'0 0.0
2018-Apr-07 11:00N 48°06' W 004°20'0 0.0
2018-Apr-07 10:30N 48°06' W 004°20'0 0.0
2018-Apr-07 10:00N 48°06' W 004°20'0 0.0
2018-Apr-07 09:27N 48°06' W 004°20'0 0.0
2018-Apr-07 08:50N 48°06' W 004°20'0 0.0
2018-Apr-07 07:51N 48°06' W 004°20'0 0.0
2018-Apr-07 07:21N 48°06' W 004°20'0 0.0
2018-Apr-07 05:39N 48°06' W 004°20'0 0.0
2018-Apr-07 05:19N 48°06' W 004°20'0 0.0
2018-Apr-07 04:55N 48°06' W 004°20'0 0.0
2018-Apr-07 04:28N 48°06' W 004°20'0 0.0
2018-Apr-07 03:52N 48°06' W 004°20'0 0.0
2018-Apr-07 03:25N 48°06' W 004°20'0 0.0
2018-Apr-07 02:58N 48°06' W 004°20'0 0.0
2018-Apr-07 02:28N 48°06' W 004°20'0 0.0
2018-Apr-07 01:55N 48°06' W 004°20'0 0.0
2018-Apr-07 01:28N 48°06' W 004°20'0 0.0
2018-Apr-07 00:58N 48°06' W 004°20'0 0.0
2018-Apr-07 00:28N 48°06' W 004°20'0 0.0
2018-Apr-06 23:58N 48°06' W 004°20'0 0.0
2018-Apr-06 23:28N 48°06' W 004°20'0 0.0
2018-Apr-06 22:58N 48°06' W 004°20'0 0.0
2018-Apr-06 22:28N 48°06' W 004°20'0 0.0
2018-Apr-06 21:52N 48°06' W 004°20'0 0.0
2018-Apr-06 21:28N 48°06' W 004°20'0 0.0
2018-Apr-06 20:43N 48°06' W 004°20'0 0.0
2018-Apr-06 20:19N 48°06' W 004°20'0 0.0
2018-Apr-06 19:58N 48°06' W 004°20'0 0.0
2018-Apr-06 19:16N 48°06' W 004°20'0 0.0
2018-Apr-06 18:58N 48°06' W 004°20'0 0.0
2018-Apr-06 18:29N 48°06' W 004°20'0 0.0
2018-Apr-06 17:55N 48°06' W 004°20'0 0.0
2018-Apr-06 17:25N 48°06' W 004°20'0 0.0
2018-Apr-06 16:55N 48°06' W 004°20'0 0.0
2018-Apr-06 16:29N 48°06' W 004°20'0 0.0
2018-Apr-06 15:56N 48°06' W 004°20'0 0.0
2018-Apr-06 15:27N 48°06' W 004°20'0 0.0
2018-Apr-06 14:57N 48°06' W 004°20'0 0.0
2018-Apr-06 14:27N 48°06' W 004°20'0 0.0
2018-Apr-06 14:00N 48°06' W 004°20'0 0.0
2018-Apr-06 13:27N 48°06' W 004°20'  

Dump ship's entire track history